sensor_id;sensor_type;location;lat;lon;timestamp;temperature;humidity
57857;DHT22;43683;48.650;9.290;2024-01-06T00:01:21;5.80;92.90
57857;DHT22;43683;48.650;9.290;2024-01-06T00:03:47;5.80;92.90
57857;DHT22;43683;48.650;9.290;2024-01-06T00:06:13;5.90;92.90
57857;DHT22;43683;48.650;9.290;2024-01-06T00:08:39;5.90;92.80
57857;DHT22;43683;48.650;9.290;2024-01-06T00:11:04;5.90;92.80
57857;DHT22;43683;48.650;9.290;2024-01-06T00:13:30;5.90;92.70
57857;DHT22;43683;48.650;9.290;2024-01-06T00:15:56;6.00;92.70
57857;DHT22;43683;48.650;9.290;2024-01-06T00:18:21;5.90;92.60
57857;DHT22;43683;48.650;9.290;2024-01-06T00:20:47;5.90;92.60
57857;DHT22;43683;48.650;9.290;2024-01-06T00:23:12;5.90;92.60
57857;DHT22;43683;48.650;9.290;2024-01-06T00:25:38;5.90;92.60
57857;DHT22;43683;48.650;9.290;2024-01-06T00:28:04;5.80;92.70
57857;DHT22;43683;48.650;9.290;2024-01-06T00:30:29;5.80;92.60
57857;DHT22;43683;48.650;9.290;2024-01-06T00:32:55;5.80;92.60
57857;DHT22;43683;48.650;9.290;2024-01-06T00:35:20;5.80;92.70
57857;DHT22;43683;48.650;9.290;2024-01-06T00:37:46;5.70;92.70
57857;DHT22;43683;48.650;9.290;2024-01-06T00:40:12;5.70;92.70
57857;DHT22;43683;48.650;9.290;2024-01-06T00:42:37;5.70;92.80
57857;DHT22;43683;48.650;9.290;2024-01-06T00:45:03;5.60;92.90
57857;DHT22;43683;48.650;9.290;2024-01-06T00:47:29;5.60;92.90
57857;DHT22;43683;48.650;9.290;2024-01-06T00:49:55;5.50;93.00
57857;DHT22;43683;48.650;9.290;2024-01-06T00:52:20;5.50;93.00
57857;DHT22;43683;48.650;9.290;2024-01-06T00:54:46;5.40;93.10
57857;DHT22;43683;48.650;9.290;2024-01-06T00:57:12;5.40;93.10
57857;DHT22;43683;48.650;9.290;2024-01-06T00:59:38;5.30;93.20
57857;DHT22;43683;48.650;9.290;2024-01-06T01:02:03;5.30;93.20
57857;DHT22;43683;48.650;9.290;2024-01-06T01:04:29;5.20;93.20
57857;DHT22;43683;48.650;9.290;2024-01-06T01:06:54;5.20;93.30
57857;DHT22;43683;48.650;9.290;2024-01-06T01:09:20;5.10;93.30
57857;DHT22;43683;48.650;9.290;2024-01-06T01:11:45;5.10;93.40
57857;DHT22;43683;48.650;9.290;2024-01-06T01:14:11;5.10;93.50
57857;DHT22;43683;48.650;9.290;2024-01-06T01:16:37;5.00;93.50
57857;DHT22;43683;48.650;9.290;2024-01-06T01:19:02;5.00;93.50
57857;DHT22;43683;48.650;9.290;2024-01-06T01:21:28;5.00;93.60
57857;DHT22;43683;48.650;9.290;2024-01-06T01:23:53;5.00;93.60
57857;DHT22;43683;48.650;9.290;2024-01-06T01:26:19;5.00;93.60
57857;DHT22;43683;48.650;9.290;2024-01-06T01:28:45;4.90;93.60
57857;DHT22;43683;48.650;9.290;2024-01-06T01:31:10;4.90;93.60
57857;DHT22;43683;48.650;9.290;2024-01-06T01:33:37;5.00;93.60
57857;DHT22;43683;48.650;9.290;2024-01-06T01:36:02;5.00;93.60
57857;DHT22;43683;48.650;9.290;2024-01-06T01:38:28;5.00;93.60
57857;DHT22;43683;48.650;9.290;2024-01-06T01:40:53;5.00;93.60
57857;DHT22;43683;48.650;9.290;2024-01-06T01:43:19;4.90;93.60
57857;DHT22;43683;48.650;9.290;2024-01-06T01:45:48;4.90;93.60
57857;DHT22;43683;48.650;9.290;2024-01-06T01:48:15;4.90;93.70
57857;DHT22;43683;48.650;9.290;2024-01-06T01:50:41;5.00;93.60
57857;DHT22;43683;48.650;9.290;2024-01-06T01:53:06;5.00;93.60
57857;DHT22;43683;48.650;9.290;2024-01-06T01:55:32;4.90;93.60
57857;DHT22;43683;48.650;9.290;2024-01-06T01:57:58;4.90;93.70
57857;DHT22;43683;48.650;9.290;2024-01-06T02:00:23;4.90;93.70
57857;DHT22;43683;48.650;9.290;2024-01-06T02:02:49;4.90;93.70
57857;DHT22;43683;48.650;9.290;2024-01-06T02:05:14;4.90;93.70
57857;DHT22;43683;48.650;9.290;2024-01-06T02:07:40;4.90;93.70
57857;DHT22;43683;48.650;9.290;2024-01-06T02:10:06;4.90;93.70
57857;DHT22;43683;48.650;9.290;2024-01-06T02:12:32;4.90;93.70
57857;DHT22;43683;48.650;9.290;2024-01-06T02:14:57;4.90;93.70
57857;DHT22;43683;48.650;9.290;2024-01-06T02:17:23;4.90;93.80
57857;DHT22;43683;48.650;9.290;2024-01-06T02:19:48;4.80;93.80
57857;DHT22;43683;48.650;9.290;2024-01-06T02:22:14;4.80;93.80
57857;DHT22;43683;48.650;9.290;2024-01-06T02:24:39;4.80;93.80
57857;DHT22;43683;48.650;9.290;2024-01-06T02:27:05;4.80;93.90
57857;DHT22;43683;48.650;9.290;2024-01-06T02:29:30;4.80;93.90
57857;DHT22;43683;48.650;9.290;2024-01-06T02:31:56;4.70;93.90
57857;DHT22;43683;48.650;9.290;2024-01-06T02:34:21;4.80;93.90
57857;DHT22;43683;48.650;9.290;2024-01-06T02:36:47;4.70;93.90
57857;DHT22;43683;48.650;9.290;2024-01-06T02:39:13;4.70;94.00
57857;DHT22;43683;48.650;9.290;2024-01-06T02:41:38;4.70;94.00
57857;DHT22;43683;48.650;9.290;2024-01-06T02:44:04;4.70;94.00
57857;DHT22;43683;48.650;9.290;2024-01-06T02:46:29;4.60;94.10
57857;DHT22;43683;48.650;9.290;2024-01-06T02:48:55;4.60;94.10
57857;DHT22;43683;48.650;9.290;2024-01-06T02:51:20;4.60;94.10
57857;DHT22;43683;48.650;9.290;2024-01-06T02:53:46;4.60;94.20
57857;DHT22;43683;48.650;9.290;2024-01-06T02:56:12;4.60;94.20
57857;DHT22;43683;48.650;9.290;2024-01-06T02:58:38;4.60;94.20
57857;DHT22;43683;48.650;9.290;2024-01-06T03:01:04;4.60;94.20
57857;DHT22;43683;48.650;9.290;2024-01-06T03:03:29;4.60;94.20
57857;DHT22;43683;48.650;9.290;2024-01-06T03:05:55;4.50;94.20
57857;DHT22;43683;48.650;9.290;2024-01-06T03:08:21;4.50;94.30
57857;DHT22;43683;48.650;9.290;2024-01-06T03:10:48;4.50;94.30
57857;DHT22;43683;48.650;9.290;2024-01-06T03:13:14;4.50;94.30
57857;DHT22;43683;48.650;9.290;2024-01-06T03:15:39;4.50;94.30
57857;DHT22;43683;48.650;9.290;2024-01-06T03:18:05;4.50;94.30
57857;DHT22;43683;48.650;9.290;2024-01-06T03:20:30;4.50;94.30
57857;DHT22;43683;48.650;9.290;2024-01-06T03:22:56;4.60;94.30
57857;DHT22;43683;48.650;9.290;2024-01-06T03:25:21;4.60;94.20
57857;DHT22;43683;48.650;9.290;2024-01-06T03:27:47;4.60;94.20
57857;DHT22;43683;48.650;9.290;2024-01-06T03:30:13;4.60;94.20
57857;DHT22;43683;48.650;9.290;2024-01-06T03:32:38;4.60;94.20
57857;DHT22;43683;48.650;9.290;2024-01-06T03:35:05;4.60;94.20
57857;DHT22;43683;48.650;9.290;2024-01-06T03:37:32;4.60;94.20
57857;DHT22;43683;48.650;9.290;2024-01-06T03:39:58;4.50;94.20
57857;DHT22;43683;48.650;9.290;2024-01-06T03:42:23;4.40;94.30
57857;DHT22;43683;48.650;9.290;2024-01-06T03:44:49;4.40;94.30
57857;DHT22;43683;48.650;9.290;2024-01-06T03:47:15;4.30;94.40
57857;DHT22;43683;48.650;9.290;2024-01-06T03:49:40;4.30;94.40
57857;DHT22;43683;48.650;9.290;2024-01-06T03:52:06;4.30;94.40
57857;DHT22;43683;48.650;9.290;2024-01-06T03:54:31;4.30;94.40
57857;DHT22;43683;48.650;9.290;2024-01-06T03:56:57;4.20;94.50
57857;DHT22;43683;48.650;9.290;2024-01-06T03:59:22;4.20;94.50
57857;DHT22;43683;48.650;9.290;2024-01-06T04:01:47;4.20;94.50
57857;DHT22;43683;48.650;9.290;2024-01-06T04:04:13;4.20;94.60
57857;DHT22;43683;48.650;9.290;2024-01-06T04:06:39;4.10;94.60
57857;DHT22;43683;48.650;9.290;2024-01-06T04:09:04;4.10;94.60
57857;DHT22;43683;48.650;9.290;2024-01-06T04:11:30;4.10;94.60
57857;DHT22;43683;48.650;9.290;2024-01-06T04:13:56;4.10;94.60
57857;DHT22;43683;48.650;9.290;2024-01-06T04:16:21;4.10;94.60
57857;DHT22;43683;48.650;9.290;2024-01-06T04:18:47;4.10;94.60
57857;DHT22;43683;48.650;9.290;2024-01-06T04:21:13;4.00;94.60
57857;DHT22;43683;48.650;9.290;2024-01-06T04:23:38;4.00;94.60
57857;DHT22;43683;48.650;9.290;2024-01-06T04:26:04;4.00;94.70
57857;DHT22;43683;48.650;9.290;2024-01-06T04:28:30;4.00;94.70
57857;DHT22;43683;48.650;9.290;2024-01-06T04:30:56;4.00;94.70
57857;DHT22;43683;48.650;9.290;2024-01-06T04:33:21;4.00;94.70
57857;DHT22;43683;48.650;9.290;2024-01-06T04:35:47;3.90;95.00
57857;DHT22;43683;48.650;9.290;2024-01-06T04:38:12;3.90;94.70
57857;DHT22;43683;48.650;9.290;2024-01-06T04:40:38;3.90;94.70
57857;DHT22;43683;48.650;9.290;2024-01-06T04:43:03;3.90;94.70
57857;DHT22;43683;48.650;9.290;2024-01-06T04:45:29;3.90;94.70
57857;DHT22;43683;48.650;9.290;2024-01-06T04:47:55;3.90;94.80
57857;DHT22;43683;48.650;9.290;2024-01-06T04:50:20;3.90;94.80
57857;DHT22;43683;48.650;9.290;2024-01-06T04:52:46;3.90;94.80
57857;DHT22;43683;48.650;9.290;2024-01-06T04:55:11;3.90;94.80
57857;DHT22;43683;48.650;9.290;2024-01-06T04:57:37;3.80;94.90
57857;DHT22;43683;48.650;9.290;2024-01-06T05:00:03;3.80;94.90
57857;DHT22;43683;48.650;9.290;2024-01-06T05:02:29;3.80;94.90
57857;DHT22;43683;48.650;9.290;2024-01-06T05:04:56;3.70;95.00
57857;DHT22;43683;48.650;9.290;2024-01-06T05:07:21;3.70;95.00
57857;DHT22;43683;48.650;9.290;2024-01-06T05:09:47;3.70;95.00
57857;DHT22;43683;48.650;9.290;2024-01-06T05:12:15;3.70;95.00
57857;DHT22;43683;48.650;9.290;2024-01-06T05:14:41;3.70;95.10
57857;DHT22;43683;48.650;9.290;2024-01-06T05:17:06;3.70;95.10
57857;DHT22;43683;48.650;9.290;2024-01-06T05:19:34;3.70;95.10
57857;DHT22;43683;48.650;9.290;2024-01-06T05:22:01;3.70;95.00
57857;DHT22;43683;48.650;9.290;2024-01-06T05:24:27;3.70;95.00
57857;DHT22;43683;48.650;9.290;2024-01-06T05:26:53;3.80;95.00
57857;DHT22;43683;48.650;9.290;2024-01-06T05:29:19;3.80;95.00
57857;DHT22;43683;48.650;9.290;2024-01-06T05:31:45;3.80;95.00
57857;DHT22;43683;48.650;9.290;2024-01-06T05:34:13;3.90;95.00
57857;DHT22;43683;48.650;9.290;2024-01-06T05:36:39;3.90;95.00
57857;DHT22;43683;48.650;9.290;2024-01-06T05:39:05;3.90;94.90
57857;DHT22;43683;48.650;9.290;2024-01-06T05:41:37;3.90;95.00
57857;DHT22;43683;48.650;9.290;2024-01-06T05:44:04;3.90;95.00
57857;DHT22;43683;48.650;9.290;2024-01-06T05:46:30;3.90;95.00
57857;DHT22;43683;48.650;9.290;2024-01-06T05:48:56;3.90;95.00
57857;DHT22;43683;48.650;9.290;2024-01-06T05:51:22;4.00;95.10
57857;DHT22;43683;48.650;9.290;2024-01-06T05:53:49;4.00;95.00
57857;DHT22;43683;48.650;9.290;2024-01-06T05:56:26;4.00;95.00
57857;DHT22;43683;48.650;9.290;2024-01-06T05:58:52;4.10;95.00
57857;DHT22;43683;48.650;9.290;2024-01-06T06:01:19;4.10;94.90
57857;DHT22;43683;48.650;9.290;2024-01-06T06:03:47;4.10;94.90
57857;DHT22;43683;48.650;9.290;2024-01-06T06:06:16;4.10;94.80
57857;DHT22;43683;48.650;9.290;2024-01-06T06:08:43;4.10;94.80
57857;DHT22;43683;48.650;9.290;2024-01-06T06:11:09;4.20;94.80
57857;DHT22;43683;48.650;9.290;2024-01-06T06:13:42;4.20;94.80
57857;DHT22;43683;48.650;9.290;2024-01-06T06:16:12;4.20;94.80
57857;DHT22;43683;48.650;9.290;2024-01-06T06:18:38;4.30;94.80
57857;DHT22;43683;48.650;9.290;2024-01-06T06:21:04;4.20;94.80
57857;DHT22;43683;48.650;9.290;2024-01-06T06:23:33;4.30;94.80
57857;DHT22;43683;48.650;9.290;2024-01-06T06:25:59;4.30;94.80
57857;DHT22;43683;48.650;9.290;2024-01-06T06:28:27;4.40;94.80
57857;DHT22;43683;48.650;9.290;2024-01-06T06:30:53;4.40;94.80
57857;DHT22;43683;48.650;9.290;2024-01-06T06:33:19;4.40;94.80
57857;DHT22;43683;48.650;9.290;2024-01-06T06:35:45;4.40;94.80
57857;DHT22;43683;48.650;9.290;2024-01-06T06:38:11;4.40;94.80
57857;DHT22;43683;48.650;9.290;2024-01-06T06:40:38;4.40;94.80
57857;DHT22;43683;48.650;9.290;2024-01-06T06:43:05;4.40;94.80
57857;DHT22;43683;48.650;9.290;2024-01-06T06:45:31;4.40;94.80
57857;DHT22;43683;48.650;9.290;2024-01-06T06:47:59;4.40;94.80
57857;DHT22;43683;48.650;9.290;2024-01-06T06:50:29;4.30;94.80
57857;DHT22;43683;48.650;9.290;2024-01-06T06:52:55;4.40;94.80
57857;DHT22;43683;48.650;9.290;2024-01-06T06:55:22;4.40;94.80
57857;DHT22;43683;48.650;9.290;2024-01-06T06:57:49;4.40;94.80
57857;DHT22;43683;48.650;9.290;2024-01-06T07:00:16;4.40;94.90
57857;DHT22;43683;48.650;9.290;2024-01-06T07:02:43;4.40;94.80
57857;DHT22;43683;48.650;9.290;2024-01-06T07:05:09;4.40;94.80
57857;DHT22;43683;48.650;9.290;2024-01-06T07:07:35;4.40;94.80
57857;DHT22;43683;48.650;9.290;2024-01-06T07:10:02;4.40;94.80
57857;DHT22;43683;48.650;9.290;2024-01-06T07:12:28;4.50;94.80
57857;DHT22;43683;48.650;9.290;2024-01-06T07:14:54;4.40;94.70
57857;DHT22;43683;48.650;9.290;2024-01-06T07:17:20;4.40;94.70
57857;DHT22;43683;48.650;9.290;2024-01-06T07:19:46;4.50;94.70
57857;DHT22;43683;48.650;9.290;2024-01-06T07:22:11;4.40;94.70
57857;DHT22;43683;48.650;9.290;2024-01-06T07:24:37;4.50;94.70
57857;DHT22;43683;48.650;9.290;2024-01-06T07:27:03;4.50;94.70
57857;DHT22;43683;48.650;9.290;2024-01-06T07:29:29;4.50;94.70
57857;DHT22;43683;48.650;9.290;2024-01-06T07:31:55;4.50;94.70
57857;DHT22;43683;48.650;9.290;2024-01-06T07:34:20;4.50;94.70
57857;DHT22;43683;48.650;9.290;2024-01-06T07:36:46;4.50;94.70
57857;DHT22;43683;48.650;9.290;2024-01-06T07:39:11;4.50;94.70
57857;DHT22;43683;48.650;9.290;2024-01-06T07:41:37;4.50;94.70
57857;DHT22;43683;48.650;9.290;2024-01-06T07:44:03;4.50;94.60
57857;DHT22;43683;48.650;9.290;2024-01-06T07:46:28;4.60;94.60
57857;DHT22;43683;48.650;9.290;2024-01-06T07:48:54;4.60;94.60
57857;DHT22;43683;48.650;9.290;2024-01-06T07:51:20;4.60;94.60
57857;DHT22;43683;48.650;9.290;2024-01-06T07:53:45;4.60;94.60
57857;DHT22;43683;48.650;9.290;2024-01-06T07:56:11;4.60;94.60
57857;DHT22;43683;48.650;9.290;2024-01-06T07:58:36;4.60;94.50
57857;DHT22;43683;48.650;9.290;2024-01-06T08:01:02;4.70;94.80
57857;DHT22;43683;48.650;9.290;2024-01-06T08:03:29;4.70;94.50
57857;DHT22;43683;48.650;9.290;2024-01-06T08:05:54;4.70;94.50
57857;DHT22;43683;48.650;9.290;2024-01-06T08:08:20;4.80;94.40
57857;DHT22;43683;48.650;9.290;2024-01-06T08:10:46;4.90;94.30
57857;DHT22;43683;48.650;9.290;2024-01-06T08:13:11;4.90;94.30
57857;DHT22;43683;48.650;9.290;2024-01-06T08:15:39;4.80;94.20
57857;DHT22;43683;48.650;9.290;2024-01-06T08:18:06;4.90;94.30
57857;DHT22;43683;48.650;9.290;2024-01-06T08:20:32;4.90;94.20
57857;DHT22;43683;48.650;9.290;2024-01-06T08:22:58;5.00;94.10
57857;DHT22;43683;48.650;9.290;2024-01-06T08:25:23;5.00;94.10
57857;DHT22;43683;48.650;9.290;2024-01-06T08:27:49;5.00;94.00
57857;DHT22;43683;48.650;9.290;2024-01-06T08:30:15;5.00;94.00
57857;DHT22;43683;48.650;9.290;2024-01-06T08:33:07;5.10;94.10
57857;DHT22;43683;48.650;9.290;2024-01-06T08:36:00;5.10;94.00
57857;DHT22;43683;48.650;9.290;2024-01-06T08:38:26;5.30;93.90
57857;DHT22;43683;48.650;9.290;2024-01-06T08:40:51;5.40;93.80
57857;DHT22;43683;48.650;9.290;2024-01-06T08:43:18;5.50;93.70
57857;DHT22;43683;48.650;9.290;2024-01-06T08:45:45;5.60;93.60
57857;DHT22;43683;48.650;9.290;2024-01-06T08:48:11;5.60;93.50
57857;DHT22;43683;48.650;9.290;2024-01-06T08:50:40;5.70;93.30
57857;DHT22;43683;48.650;9.290;2024-01-06T08:53:08;5.80;93.20
57857;DHT22;43683;48.650;9.290;2024-01-06T08:55:37;5.90;93.00
57857;DHT22;43683;48.650;9.290;2024-01-06T08:58:03;5.90;92.80
57857;DHT22;43683;48.650;9.290;2024-01-06T09:00:28;6.00;92.70
57857;DHT22;43683;48.650;9.290;2024-01-06T09:02:54;6.00;92.50
57857;DHT22;43683;48.650;9.290;2024-01-06T09:05:20;6.10;92.40
57857;DHT22;43683;48.650;9.290;2024-01-06T09:07:45;6.00;92.40
57857;DHT22;43683;48.650;9.290;2024-01-06T09:10:18;6.00;92.30
57857;DHT22;43683;48.650;9.290;2024-01-06T09:12:44;6.10;92.30
57857;DHT22;43683;48.650;9.290;2024-01-06T09:15:10;6.00;92.20
57857;DHT22;43683;48.650;9.290;2024-01-06T09:17:35;6.00;92.10
57857;DHT22;43683;48.650;9.290;2024-01-06T09:20:01;6.00;92.10
57857;DHT22;43683;48.650;9.290;2024-01-06T09:22:28;6.00;92.00
57857;DHT22;43683;48.650;9.290;2024-01-06T09:24:53;6.10;91.90
57857;DHT22;43683;48.650;9.290;2024-01-06T09:27:19;6.10;91.80
57857;DHT22;43683;48.650;9.290;2024-01-06T09:29:45;6.10;91.80
57857;DHT22;43683;48.650;9.290;2024-01-06T09:32:11;6.10;91.70
57857;DHT22;43683;48.650;9.290;2024-01-06T09:34:36;6.10;91.70
57857;DHT22;43683;48.650;9.290;2024-01-06T09:37:02;6.10;91.60
57857;DHT22;43683;48.650;9.290;2024-01-06T09:39:28;6.20;91.50
57857;DHT22;43683;48.650;9.290;2024-01-06T09:41:56;6.20;91.40
57857;DHT22;43683;48.650;9.290;2024-01-06T09:44:21;6.30;91.30
57857;DHT22;43683;48.650;9.290;2024-01-06T09:46:47;6.30;91.20
57857;DHT22;43683;48.650;9.290;2024-01-06T09:49:14;6.40;91.00
57857;DHT22;43683;48.650;9.290;2024-01-06T09:51:40;6.50;91.00
57857;DHT22;43683;48.650;9.290;2024-01-06T09:54:09;6.50;90.90
57857;DHT22;43683;48.650;9.290;2024-01-06T09:56:35;6.60;90.70
57857;DHT22;43683;48.650;9.290;2024-01-06T09:59:01;6.60;90.60
57857;DHT22;43683;48.650;9.290;2024-01-06T10:01:27;6.70;90.50
57857;DHT22;43683;48.650;9.290;2024-01-06T10:03:53;6.70;90.40
57857;DHT22;43683;48.650;9.290;2024-01-06T10:06:19;6.70;90.30
57857;DHT22;43683;48.650;9.290;2024-01-06T10:08:52;6.70;90.20
57857;DHT22;43683;48.650;9.290;2024-01-06T10:11:19;6.80;90.00
57857;DHT22;43683;48.650;9.290;2024-01-06T10:13:51;6.80;89.90
57857;DHT22;43683;48.650;9.290;2024-01-06T10:16:17;6.90;89.70
57857;DHT22;43683;48.650;9.290;2024-01-06T10:18:44;7.00;89.40
57857;DHT22;43683;48.650;9.290;2024-01-06T10:21:09;7.00;89.20
57857;DHT22;43683;48.650;9.290;2024-01-06T10:23:36;7.10;89.20
57857;DHT22;43683;48.650;9.290;2024-01-06T10:26:02;7.20;88.90
57857;DHT22;43683;48.650;9.290;2024-01-06T10:28:28;7.40;88.50
57857;DHT22;43683;48.650;9.290;2024-01-06T10:30:55;7.50;88.10
57857;DHT22;43683;48.650;9.290;2024-01-06T10:33:23;7.60;87.90
57857;DHT22;43683;48.650;9.290;2024-01-06T10:35:49;7.60;87.70
57857;DHT22;43683;48.650;9.290;2024-01-06T10:38:15;7.60;87.70
57857;DHT22;43683;48.650;9.290;2024-01-06T10:41:04;7.40;87.90
57857;DHT22;43683;48.650;9.290;2024-01-06T10:43:35;7.50;87.50
57857;DHT22;43683;48.650;9.290;2024-01-06T10:46:04;7.70;87.30
57857;DHT22;43683;48.650;9.290;2024-01-06T10:48:35;7.80;86.90
57857;DHT22;43683;48.650;9.290;2024-01-06T10:51:01;7.70;86.70
57857;DHT22;43683;48.650;9.290;2024-01-06T10:53:28;7.60;87.20
57857;DHT22;43683;48.650;9.290;2024-01-06T10:55:54;7.50;87.50
57857;DHT22;43683;48.650;9.290;2024-01-06T10:58:20;7.40;87.40
57857;DHT22;43683;48.650;9.290;2024-01-06T11:00:47;7.30;87.50
57857;DHT22;43683;48.650;9.290;2024-01-06T11:03:13;7.20;87.50
57857;DHT22;43683;48.650;9.290;2024-01-06T11:05:41;7.20;87.50
57857;DHT22;43683;48.650;9.290;2024-01-06T11:08:09;7.20;87.30
57857;DHT22;43683;48.650;9.290;2024-01-06T11:10:36;7.20;87.00
57857;DHT22;43683;48.650;9.290;2024-01-06T11:13:13;7.20;86.80
57857;DHT22;43683;48.650;9.290;2024-01-06T11:15:43;7.20;86.50
57857;DHT22;43683;48.650;9.290;2024-01-06T11:18:09;7.30;86.50
57857;DHT22;43683;48.650;9.290;2024-01-06T11:20:34;7.20;86.40
57857;DHT22;43683;48.650;9.290;2024-01-06T11:23:19;7.20;86.40
57857;DHT22;43683;48.650;9.290;2024-01-06T11:25:48;7.10;86.20
57857;DHT22;43683;48.650;9.290;2024-01-06T11:28:13;7.10;86.40
57857;DHT22;43683;48.650;9.290;2024-01-06T11:30:41;7.20;86.30
57857;DHT22;43683;48.650;9.290;2024-01-06T11:33:08;7.10;86.20
57857;DHT22;43683;48.650;9.290;2024-01-06T11:35:36;7.10;86.30
57857;DHT22;43683;48.650;9.290;2024-01-06T11:38:02;7.00;86.80
57857;DHT22;43683;48.650;9.290;2024-01-06T11:40:34;7.00;86.90
57857;DHT22;43683;48.650;9.290;2024-01-06T11:45:29;7.10;86.70
57857;DHT22;43683;48.650;9.290;2024-01-06T11:47:57;7.00;86.60
57857;DHT22;43683;48.650;9.290;2024-01-06T11:50:27;7.00;86.90
57857;DHT22;43683;48.650;9.290;2024-01-06T11:52:54;6.80;87.20
57857;DHT22;43683;48.650;9.290;2024-01-06T11:55:20;6.70;87.50
57857;DHT22;43683;48.650;9.290;2024-01-06T11:57:46;6.60;88.00
57857;DHT22;43683;48.650;9.290;2024-01-06T12:00:13;6.60;88.10
57857;DHT22;43683;48.650;9.290;2024-01-06T12:02:40;6.60;88.20
57857;DHT22;43683;48.650;9.290;2024-01-06T12:05:05;6.60;88.20
57857;DHT22;43683;48.650;9.290;2024-01-06T12:07:31;6.50;88.20
57857;DHT22;43683;48.650;9.290;2024-01-06T12:10:01;6.60;88.00
57857;DHT22;43683;48.650;9.290;2024-01-06T12:12:27;6.70;87.70
57857;DHT22;43683;48.650;9.290;2024-01-06T12:14:53;6.90;87.50
57857;DHT22;43683;48.650;9.290;2024-01-06T12:17:21;6.90;87.90
57857;DHT22;43683;48.650;9.290;2024-01-06T12:19:47;7.00;87.00
57857;DHT22;43683;48.650;9.290;2024-01-06T12:22:14;7.00;86.80
57857;DHT22;43683;48.650;9.290;2024-01-06T12:24:40;7.00;86.60
57857;DHT22;43683;48.650;9.290;2024-01-06T12:27:08;7.00;86.70
57857;DHT22;43683;48.650;9.290;2024-01-06T12:29:38;7.10;86.70
57857;DHT22;43683;48.650;9.290;2024-01-06T12:32:05;7.10;86.60
57857;DHT22;43683;48.650;9.290;2024-01-06T12:34:31;7.10;86.40
57857;DHT22;43683;48.650;9.290;2024-01-06T12:36:56;7.20;86.20
57857;DHT22;43683;48.650;9.290;2024-01-06T12:39:22;7.30;86.30
57857;DHT22;43683;48.650;9.290;2024-01-06T12:41:50;7.20;86.40
57857;DHT22;43683;48.650;9.290;2024-01-06T12:44:16;7.20;86.50
57857;DHT22;43683;48.650;9.290;2024-01-06T12:46:41;7.10;86.70
57857;DHT22;43683;48.650;9.290;2024-01-06T12:49:07;7.10;86.60
57857;DHT22;43683;48.650;9.290;2024-01-06T12:51:32;7.10;86.60
57857;DHT22;43683;48.650;9.290;2024-01-06T12:53:58;7.00;86.70
57857;DHT22;43683;48.650;9.290;2024-01-06T12:56:24;6.90;86.80
57857;DHT22;43683;48.650;9.290;2024-01-06T12:58:49;6.90;87.20
57857;DHT22;43683;48.650;9.290;2024-01-06T13:01:15;6.80;87.20
57857;DHT22;43683;48.650;9.290;2024-01-06T13:03:41;6.70;87.30
57857;DHT22;43683;48.650;9.290;2024-01-06T13:06:06;6.70;87.50
57857;DHT22;43683;48.650;9.290;2024-01-06T13:08:32;6.60;87.70
57857;DHT22;43683;48.650;9.290;2024-01-06T13:10:58;6.60;87.60
57857;DHT22;43683;48.650;9.290;2024-01-06T13:13:24;6.60;87.60
57857;DHT22;43683;48.650;9.290;2024-01-06T13:15:49;6.60;87.60
57857;DHT22;43683;48.650;9.290;2024-01-06T13:18:15;6.70;87.60
57857;DHT22;43683;48.650;9.290;2024-01-06T13:20:42;6.70;87.60
57857;DHT22;43683;48.650;9.290;2024-01-06T13:23:09;6.70;87.60
57857;DHT22;43683;48.650;9.290;2024-01-06T13:25:36;6.70;87.60
57857;DHT22;43683;48.650;9.290;2024-01-06T13:28:03;6.70;87.60
57857;DHT22;43683;48.650;9.290;2024-01-06T13:30:29;6.70;87.80
57857;DHT22;43683;48.650;9.290;2024-01-06T13:32:55;6.70;87.80
57857;DHT22;43683;48.650;9.290;2024-01-06T13:35:21;6.70;87.80
57857;DHT22;43683;48.650;9.290;2024-01-06T13:37:50;6.70;87.90
57857;DHT22;43683;48.650;9.290;2024-01-06T13:40:17;6.70;87.90
57857;DHT22;43683;48.650;9.290;2024-01-06T13:42:49;6.60;88.00
57857;DHT22;43683;48.650;9.290;2024-01-06T13:45:16;6.60;88.00
57857;DHT22;43683;48.650;9.290;2024-01-06T13:47:41;6.60;88.90
57857;DHT22;43683;48.650;9.290;2024-01-06T13:50:11;6.60;88.40
57857;DHT22;43683;48.650;9.290;2024-01-06T13:52:37;6.60;88.50
57857;DHT22;43683;48.650;9.290;2024-01-06T13:55:03;6.60;88.60
57857;DHT22;43683;48.650;9.290;2024-01-06T13:57:29;6.60;88.50
57857;DHT22;43683;48.650;9.290;2024-01-06T13:59:54;6.50;88.50
57857;DHT22;43683;48.650;9.290;2024-01-06T14:02:20;6.50;88.50
57857;DHT22;43683;48.650;9.290;2024-01-06T14:04:45;6.50;88.50
57857;DHT22;43683;48.650;9.290;2024-01-06T14:07:11;6.50;88.40
57857;DHT22;43683;48.650;9.290;2024-01-06T14:09:37;6.60;88.30
57857;DHT22;43683;48.650;9.290;2024-01-06T14:12:02;6.60;88.90
57857;DHT22;43683;48.650;9.290;2024-01-06T14:14:31;6.60;88.20
57857;DHT22;43683;48.650;9.290;2024-01-06T14:16:57;6.60;88.10
57857;DHT22;43683;48.650;9.290;2024-01-06T14:19:24;6.60;88.10
57857;DHT22;43683;48.650;9.290;2024-01-06T14:21:49;6.50;88.20
57857;DHT22;43683;48.650;9.290;2024-01-06T14:24:16;6.50;88.40
57857;DHT22;43683;48.650;9.290;2024-01-06T14:26:52;6.50;88.50
57857;DHT22;43683;48.650;9.290;2024-01-06T14:29:18;6.50;88.50
57857;DHT22;43683;48.650;9.290;2024-01-06T14:31:44;6.40;88.60
57857;DHT22;43683;48.650;9.290;2024-01-06T14:34:10;6.40;88.70
57857;DHT22;43683;48.650;9.290;2024-01-06T14:36:35;6.40;88.90
57857;DHT22;43683;48.650;9.290;2024-01-06T14:39:01;6.40;88.90
57857;DHT22;43683;48.650;9.290;2024-01-06T14:41:29;6.30;89.10
57857;DHT22;43683;48.650;9.290;2024-01-06T14:43:54;6.20;89.20
57857;DHT22;43683;48.650;9.290;2024-01-06T14:46:20;6.20;89.40
57857;DHT22;43683;48.650;9.290;2024-01-06T14:48:45;6.10;89.60
57857;DHT22;43683;48.650;9.290;2024-01-06T14:51:11;6.10;89.70
57857;DHT22;43683;48.650;9.290;2024-01-06T14:53:36;6.00;89.80
57857;DHT22;43683;48.650;9.290;2024-01-06T14:56:02;6.00;90.00
57857;DHT22;43683;48.650;9.290;2024-01-06T14:58:29;6.00;90.00
57857;DHT22;43683;48.650;9.290;2024-01-06T15:00:55;6.00;90.00
57857;DHT22;43683;48.650;9.290;2024-01-06T15:03:21;6.00;90.10
57857;DHT22;43683;48.650;9.290;2024-01-06T15:05:48;5.90;90.00
57857;DHT22;43683;48.650;9.290;2024-01-06T15:08:14;5.90;90.10
57857;DHT22;43683;48.650;9.290;2024-01-06T15:10:40;5.90;90.10
57857;DHT22;43683;48.650;9.290;2024-01-06T15:13:05;5.90;90.10
57857;DHT22;43683;48.650;9.290;2024-01-06T15:15:31;5.90;90.20
57857;DHT22;43683;48.650;9.290;2024-01-06T15:17:56;5.80;90.20
57857;DHT22;43683;48.650;9.290;2024-01-06T15:20:22;5.80;90.30
57857;DHT22;43683;48.650;9.290;2024-01-06T15:22:48;5.80;90.30
57857;DHT22;43683;48.650;9.290;2024-01-06T15:25:14;5.70;90.40
57857;DHT22;43683;48.650;9.290;2024-01-06T15:27:39;5.70;90.40
57857;DHT22;43683;48.650;9.290;2024-01-06T15:30:06;5.70;90.50
57857;DHT22;43683;48.650;9.290;2024-01-06T15:32:35;5.60;90.50
57857;DHT22;43683;48.650;9.290;2024-01-06T15:35:01;5.70;90.50
57857;DHT22;43683;48.650;9.290;2024-01-06T15:37:27;5.60;90.50
57857;DHT22;43683;48.650;9.290;2024-01-06T15:39:52;5.60;90.50
57857;DHT22;43683;48.650;9.290;2024-01-06T15:42:18;5.60;90.60